sensor_id;sensor_type;location;lat;lon;timestamp;temperature;humidity
12708;DHT22;6418;50.824;4.718;2023-04-03T00:01:47;0.80;99.90
12708;DHT22;6418;50.824;4.718;2023-04-03T00:04:14;1.30;99.90
12708;DHT22;6418;50.824;4.718;2023-04-03T00:06:41;0.80;99.90
12708;DHT22;6418;50.824;4.718;2023-04-03T00:09:10;0.80;99.90
12708;DHT22;6418;50.824;4.718;2023-04-03T00:11:37;0.70;99.90
12708;DHT22;6418;50.824;4.718;2023-04-03T00:14:03;0.70;99.90
12708;DHT22;6418;50.824;4.718;2023-04-03T00:16:30;0.60;99.90
12708;DHT22;6418;50.824;4.718;2023-04-03T00:18:57;0.60;99.90
12708;DHT22;6418;50.824;4.718;2023-04-03T00:21:27;1.10;99.90
12708;DHT22;6418;50.824;4.718;2023-04-03T00:23:54;1.10;99.90
12708;DHT22;6418;50.824;4.718;2023-04-03T00:26:22;1.10;99.90
12708;DHT22;6418;50.824;4.718;2023-04-03T00:28:49;0.50;99.90
12708;DHT22;6418;50.824;4.718;2023-04-03T00:31:16;1.10;99.90
12708;DHT22;6418;50.824;4.718;2023-04-03T00:33:43;0.50;99.90
12708;DHT22;6418;50.824;4.718;2023-04-03T00:36:11;0.50;99.90
12708;DHT22;6418;50.824;4.718;2023-04-03T00:38:39;0.50;99.90
12708;DHT22;6418;50.824;4.718;2023-04-03T00:41:06;0.50;99.90
12708;DHT22;6418;50.824;4.718;2023-04-03T00:43:34;0.50;99.90
12708;DHT22;6418;50.824;4.718;2023-04-03T00:46:02;0.60;99.90
12708;DHT22;6418;50.824;4.718;2023-04-03T00:48:31;0.40;99.90
12708;DHT22;6418;50.824;4.718;2023-04-03T00:50:59;0.60;99.90
12708;DHT22;6418;50.824;4.718;2023-04-03T00:53:30;0.40;99.90
12708;DHT22;6418;50.824;4.718;2023-04-03T00:55:58;1.20;99.90
12708;DHT22;6418;50.824;4.718;2023-04-03T00:58:32;0.40;99.90
12708;DHT22;6418;50.824;4.718;2023-04-03T01:01:05;0.40;99.90
12708;DHT22;6418;50.824;4.718;2023-04-03T01:03:34;0.60;99.90
12708;DHT22;6418;50.824;4.718;2023-04-03T01:06:01;0.40;99.90
12708;DHT22;6418;50.824;4.718;2023-04-03T01:08:30;0.40;99.90
12708;DHT22;6418;50.824;4.718;2023-04-03T01:10:57;1.10;99.90
12708;DHT22;6418;50.824;4.718;2023-04-03T01:13:26;0.60;99.90
12708;DHT22;6418;50.824;4.718;2023-04-03T01:15:53;0.40;99.90
12708;DHT22;6418;50.824;4.718;2023-04-03T01:18:22;0.40;99.90
12708;DHT22;6418;50.824;4.718;2023-04-03T01:24:09;0.40;99.90
12708;DHT22;6418;50.824;4.718;2023-04-03T01:26:38;0.40;99.90
12708;DHT22;6418;50.824;4.718;2023-04-03T01:29:05;0.40;99.90
12708;DHT22;6418;50.824;4.718;2023-04-03T01:31:47;0.60;99.90
12708;DHT22;6418;50.824;4.718;2023-04-03T01:34:14;0.30;99.90
12708;DHT22;6418;50.824;4.718;2023-04-03T01:36:41;0.30;99.90
12708;DHT22;6418;50.824;4.718;2023-04-03T01:39:08;0.40;99.90
12708;DHT22;6418;50.824;4.718;2023-04-03T01:41:35;0.30;99.90
12708;DHT22;6418;50.824;4.718;2023-04-03T01:44:02;0.80;99.90
12708;DHT22;6418;50.824;4.718;2023-04-03T01:46:30;0.30;99.90
12708;DHT22;6418;50.824;4.718;2023-04-03T01:48:58;0.30;99.90
12708;DHT22;6418;50.824;4.718;2023-04-03T01:51:25;0.30;99.90
12708;DHT22;6418;50.824;4.718;2023-04-03T01:53:52;0.40;99.90
12708;DHT22;6418;50.824;4.718;2023-04-03T01:56:19;0.30;99.90
12708;DHT22;6418;50.824;4.718;2023-04-03T01:58:46;1.20;99.90
12708;DHT22;6418;50.824;4.718;2023-04-03T02:01:13;0.30;99.90
12708;DHT22;6418;50.824;4.718;2023-04-03T02:03:40;0.80;99.90
12708;DHT22;6418;50.824;4.718;2023-04-03T02:06:08;0.30;99.90
12708;DHT22;6418;50.824;4.718;2023-04-03T02:08:35;0.70;99.90
12708;DHT22;6418;50.824;4.718;2023-04-03T02:11:02;1.00;99.90
12708;DHT22;6418;50.824;4.718;2023-04-03T02:13:29;0.20;99.90
12708;DHT22;6418;50.824;4.718;2023-04-03T02:15:56;0.20;99.90
12708;DHT22;6418;50.824;4.718;2023-04-03T02:18:24;0.10;99.90
12708;DHT22;6418;50.824;4.718;2023-04-03T02:20:51;0.10;99.90
12708;DHT22;6418;50.824;4.718;2023-04-03T02:23:20;0.40;99.90
12708;DHT22;6418;50.824;4.718;2023-04-03T02:25:47;0.00;99.90
12708;DHT22;6418;50.824;4.718;2023-04-03T02:28:14;0.00;99.90
12708;DHT22;6418;50.824;4.718;2023-04-03T02:30:41;0.50;99.90
12708;DHT22;6418;50.824;4.718;2023-04-03T02:33:08;0.20;99.90
12708;DHT22;6418;50.824;4.718;2023-04-03T02:35:35;1.00;99.90
12708;DHT22;6418;50.824;4.718;2023-04-03T02:38:03;0.40;99.90
12708;DHT22;6418;50.824;4.718;2023-04-03T02:40:31;-0.10;99.90
12708;DHT22;6418;50.824;4.718;2023-04-03T02:42:58;0.70;99.90
12708;DHT22;6418;50.824;4.718;2023-04-03T02:45:25;-0.10;99.90
12708;DHT22;6418;50.824;4.718;2023-04-03T02:47:52;-0.10;99.90
12708;DHT22;6418;50.824;4.718;2023-04-03T02:50:19;0.60;99.90
12708;DHT22;6418;50.824;4.718;2023-04-03T02:52:46;0.30;99.90
12708;DHT22;6418;50.824;4.718;2023-04-03T02:55:14;-0.10;99.90
12708;DHT22;6418;50.824;4.718;2023-04-03T02:57:43;-0.20;99.90
12708;DHT22;6418;50.824;4.718;2023-04-03T03:00:10;0.70;99.90
12708;DHT22;6418;50.824;4.718;2023-04-03T03:02:37;-0.20;99.90
12708;DHT22;6418;50.824;4.718;2023-04-03T03:05:04;-0.20;99.90
12708;DHT22;6418;50.824;4.718;2023-04-03T03:07:32;-0.20;99.90
12708;DHT22;6418;50.824;4.718;2023-04-03T03:09:58;0.20;99.90
12708;DHT22;6418;50.824;4.718;2023-04-03T03:12:26;0.60;99.90
12708;DHT22;6418;50.824;4.718;2023-04-03T03:14:54;-0.20;99.90
12708;DHT22;6418;50.824;4.718;2023-04-03T03:17:21;-0.20;99.90
12708;DHT22;6418;50.824;4.718;2023-04-03T03:19:48;-0.30;99.90
12708;DHT22;6418;50.824;4.718;2023-04-03T03:22:15;-0.30;99.90
12708;DHT22;6418;50.824;4.718;2023-04-03T03:24:42;-0.10;99.90
12708;DHT22;6418;50.824;4.718;2023-04-03T03:27:09;-0.30;99.90
12708;DHT22;6418;50.824;4.718;2023-04-03T03:29:37;-0.30;99.90
12708;DHT22;6418;50.824;4.718;2023-04-03T03:32:06;-0.40;99.90
12708;DHT22;6418;50.824;4.718;2023-04-03T03:34:32;-0.30;99.90
12708;DHT22;6418;50.824;4.718;2023-04-03T03:37:00;-0.40;99.90
12708;DHT22;6418;50.824;4.718;2023-04-03T03:39:27;-0.30;99.90
12708;DHT22;6418;50.824;4.718;2023-04-03T03:41:54;-0.40;99.90
12708;DHT22;6418;50.824;4.718;2023-04-03T03:44:21;-0.40;99.90
12708;DHT22;6418;50.824;4.718;2023-04-03T03:46:48;0.30;99.90
12708;DHT22;6418;50.824;4.718;2023-04-03T03:49:17;-0.40;99.90
12708;DHT22;6418;50.824;4.718;2023-04-03T03:51:44;-0.50;99.90
12708;DHT22;6418;50.824;4.718;2023-04-03T03:54:11;-0.50;99.90
12708;DHT22;6418;50.824;4.718;2023-04-03T03:56:38;-0.50;99.90
12708;DHT22;6418;50.824;4.718;2023-04-03T03:59:05;-0.50;99.90
12708;DHT22;6418;50.824;4.718;2023-04-03T04:01:31;-0.50;99.90
12708;DHT22;6418;50.824;4.718;2023-04-03T04:03:58;-0.60;99.90
12708;DHT22;6418;50.824;4.718;2023-04-03T04:06:27;-0.60;99.90
12708;DHT22;6418;50.824;4.718;2023-04-03T04:08:54;-0.60;99.90
12708;DHT22;6418;50.824;4.718;2023-04-03T04:11:20;0.00;99.90
12708;DHT22;6418;50.824;4.718;2023-04-03T04:13:47;-0.70;99.90
12708;DHT22;6418;50.824;4.718;2023-04-03T04:16:14;-0.70;99.90
12708;DHT22;6418;50.824;4.718;2023-04-03T04:18:41;-0.70;99.90
12708;DHT22;6418;50.824;4.718;2023-04-03T04:21:08;-0.70;99.90
12708;DHT22;6418;50.824;4.718;2023-04-03T04:23:36;-0.70;99.90
12708;DHT22;6418;50.824;4.718;2023-04-03T04:26:03;-0.10;99.90
12708;DHT22;6418;50.824;4.718;2023-04-03T04:28:30;-0.80;99.90
12708;DHT22;6418;50.824;4.718;2023-04-03T04:30:57;-0.80;99.90
12708;DHT22;6418;50.824;4.718;2023-04-03T04:33:24;-0.80;99.90
12708;DHT22;6418;50.824;4.718;2023-04-03T04:35:51;-0.80;99.90
12708;DHT22;6418;50.824;4.718;2023-04-03T04:38:18;-0.90;99.90
12708;DHT22;6418;50.824;4.718;2023-04-03T04:40:47;-0.90;99.90
12708;DHT22;6418;50.824;4.718;2023-04-03T04:43:14;-0.80;99.90
12708;DHT22;6418;50.824;4.718;2023-04-03T04:45:41;-0.90;99.90
12708;DHT22;6418;50.824;4.718;2023-04-03T04:48:08;-0.90;99.90
12708;DHT22;6418;50.824;4.718;2023-04-03T04:50:35;-0.90;99.90
12708;DHT22;6418;50.824;4.718;2023-04-03T04:53:02;-0.90;99.90
12708;DHT22;6418;50.824;4.718;2023-04-03T04:55:29;-0.90;99.90
12708;DHT22;6418;50.824;4.718;2023-04-03T04:57:58;-0.90;99.90
12708;DHT22;6418;50.824;4.718;2023-04-03T05:00:25;-0.90;99.90
12708;DHT22;6418;50.824;4.718;2023-04-03T05:02:52;-1.00;99.90
12708;DHT22;6418;50.824;4.718;2023-04-03T05:05:18;-0.10;99.90
12708;DHT22;6418;50.824;4.718;2023-04-03T05:07:45;-1.00;99.90
12708;DHT22;6418;50.824;4.718;2023-04-03T05:10:12;-1.00;99.90
12708;DHT22;6418;50.824;4.718;2023-04-03T05:12:39;-1.10;99.90
12708;DHT22;6418;50.824;4.718;2023-04-03T05:15:09;-1.10;99.90
12708;DHT22;6418;50.824;4.718;2023-04-03T05:17:36;-1.00;99.90
12708;DHT22;6418;50.824;4.718;2023-04-03T05:20:03;-0.90;99.90
12708;DHT22;6418;50.824;4.718;2023-04-03T05:22:30;-1.10;99.90
12708;DHT22;6418;50.824;4.718;2023-04-03T05:24:57;-1.10;99.90
12708;DHT22;6418;50.824;4.718;2023-04-03T05:27:24;-1.10;99.90
12708;DHT22;6418;50.824;4.718;2023-04-03T05:29:53;-1.10;99.90
12708;DHT22;6418;50.824;4.718;2023-04-03T05:32:22;-1.10;99.90
12708;DHT22;6418;50.824;4.718;2023-04-03T05:34:50;-1.10;99.90
12708;DHT22;6418;50.824;4.718;2023-04-03T05:37:17;-1.10;99.90
12708;DHT22;6418;50.824;4.718;2023-04-03T05:39:44;-1.10;99.90
12708;DHT22;6418;50.824;4.718;2023-04-03T05:42:11;-1.10;99.90
12708;DHT22;6418;50.824;4.718;2023-04-03T05:44:38;-1.00;99.90
12708;DHT22;6418;50.824;4.718;2023-04-03T05:47:06;-1.10;99.90
12708;DHT22;6418;50.824;4.718;2023-04-03T05:49:34;-1.10;99.90
12708;DHT22;6418;50.824;4.718;2023-04-03T05:52:01;-0.30;99.90
12708;DHT22;6418;50.824;4.718;2023-04-03T05:54:29;-1.10;99.90
12708;DHT22;6418;50.824;4.718;2023-04-03T05:56:56;-1.10;99.90
12708;DHT22;6418;50.824;4.718;2023-04-03T05:59:23;-1.10;99.90
12708;DHT22;6418;50.824;4.718;2023-04-03T06:01:50;-1.10;99.90
12708;DHT22;6418;50.824;4.718;2023-04-03T06:04:17;-1.40;99.90
12708;DHT22;6418;50.824;4.718;2023-04-03T06:06:48;-1.00;99.90
12708;DHT22;6418;50.824;4.718;2023-04-03T06:09:18;-0.90;99.90
12708;DHT22;6418;50.824;4.718;2023-04-03T06:11:45;-1.00;99.90
12708;DHT22;6418;50.824;4.718;2023-04-03T06:14:12;-0.90;99.90
12708;DHT22;6418;50.824;4.718;2023-04-03T06:16:39;-0.90;99.90
12708;DHT22;6418;50.824;4.718;2023-04-03T06:19:06;-0.90;99.90
12708;DHT22;6418;50.824;4.718;2023-04-03T06:21:33;-0.90;99.90
12708;DHT22;6418;50.824;4.718;2023-04-03T06:24:02;-0.90;99.90
12708;DHT22;6418;50.824;4.718;2023-04-03T06:26:29;-0.80;99.90
12708;DHT22;6418;50.824;4.718;2023-04-03T06:28:56;-0.80;99.90
12708;DHT22;6418;50.824;4.718;2023-04-03T06:31:23;-0.80;99.90
12708;DHT22;6418;50.824;4.718;2023-04-03T06:33:50;-0.70;99.90
12708;DHT22;6418;50.824;4.718;2023-04-03T06:36:18;-0.70;99.90
12708;DHT22;6418;50.824;4.718;2023-04-03T06:38:47;-0.70;99.90
12708;DHT22;6418;50.824;4.718;2023-04-03T06:41:16;-0.60;99.90
12708;DHT22;6418;50.824;4.718;2023-04-03T06:43:43;-0.60;99.90
12708;DHT22;6418;50.824;4.718;2023-04-03T06:46:13;-0.50;99.90
12708;DHT22;6418;50.824;4.718;2023-04-03T06:48:41;-0.50;99.90
12708;DHT22;6418;50.824;4.718;2023-04-03T06:51:16;-0.30;99.90
12708;DHT22;6418;50.824;4.718;2023-04-03T06:53:44;-0.20;99.90
12708;DHT22;6418;50.824;4.718;2023-04-03T06:56:11;0.10;99.90
12708;DHT22;6418;50.824;4.718;2023-04-03T06:58:39;0.30;99.90
12708;DHT22;6418;50.824;4.718;2023-04-03T07:01:07;0.40;99.90
12708;DHT22;6418;50.824;4.718;2023-04-03T07:03:35;0.50;99.90
12708;DHT22;6418;50.824;4.718;2023-04-03T07:06:02;0.60;99.90
12708;DHT22;6418;50.824;4.718;2023-04-03T07:08:30;0.60;99.90
12708;DHT22;6418;50.824;4.718;2023-04-03T07:10:57;0.60;99.90
12708;DHT22;6418;50.824;4.718;2023-04-03T07:13:24;0.60;99.90
12708;DHT22;6418;50.824;4.718;2023-04-03T07:15:53;0.60;99.90
12708;DHT22;6418;50.824;4.718;2023-04-03T07:18:20;0.60;99.90
12708;DHT22;6418;50.824;4.718;2023-04-03T07:20:48;1.50;99.90
12708;DHT22;6418;50.824;4.718;2023-04-03T07:23:15;0.80;99.90
12708;DHT22;6418;50.824;4.718;2023-04-03T07:25:43;1.80;99.90
12708;DHT22;6418;50.824;4.718;2023-04-03T07:28:11;1.00;99.90
12708;DHT22;6418;50.824;4.718;2023-04-03T07:30:43;1.00;99.90
12708;DHT22;6418;50.824;4.718;2023-04-03T07:33:12;1.00;99.90
12708;DHT22;6418;50.824;4.718;2023-04-03T07:35:40;1.10;99.90
12708;DHT22;6418;50.824;4.718;2023-04-03T07:38:07;1.60;99.90
12708;DHT22;6418;50.824;4.718;2023-04-03T07:40:34;1.30;99.90
12708;DHT22;6418;50.824;4.718;2023-04-03T07:43:01;1.40;99.90
12708;DHT22;6418;50.824;4.718;2023-04-03T07:45:28;1.50;99.90
12708;DHT22;6418;50.824;4.718;2023-04-03T07:47:55;1.60;99.90
12708;DHT22;6418;50.824;4.718;2023-04-03T07:50:24;1.60;99.90
12708;DHT22;6418;50.824;4.718;2023-04-03T07:52:52;1.70;99.90
12708;DHT22;6418;50.824;4.718;2023-04-03T07:55:21;1.80;99.90
12708;DHT22;6418;50.824;4.718;2023-04-03T07:57:48;2.80;99.90
12708;DHT22;6418;50.824;4.718;2023-04-03T08:00:16;2.60;99.90
12708;DHT22;6418;50.824;4.718;2023-04-03T08:02:45;1.90;99.90
12708;DHT22;6418;50.824;4.718;2023-04-03T08:05:16;1.90;99.90
12708;DHT22;6418;50.824;4.718;2023-04-03T08:07:44;2.00;99.90
12708;DHT22;6418;50.824;4.718;2023-04-03T08:10:11;2.10;99.90
12708;DHT22;6418;50.824;4.718;2023-04-03T08:12:38;2.10;99.90
12708;DHT22;6418;50.824;4.718;2023-04-03T08:15:07;2.20;99.90
12708;DHT22;6418;50.824;4.718;2023-04-03T08:17:35;2.20;99.90
12708;DHT22;6418;50.824;4.718;2023-04-03T08:20:03;2.30;99.90
12708;DHT22;6418;50.824;4.718;2023-04-03T08:22:30;2.40;99.90
12708;DHT22;6418;50.824;4.718;2023-04-03T08:24:58;2.40;99.90
12708;DHT22;6418;50.824;4.718;2023-04-03T08:27:26;2.50;99.90
12708;DHT22;6418;50.824;4.718;2023-04-03T08:29:54;2.90;99.90
12708;DHT22;6418;50.824;4.718;2023-04-03T08:32:21;2.80;99.90
12708;DHT22;6418;50.824;4.718;2023-04-03T08:34:47;2.80;99.90
12708;DHT22;6418;50.824;4.718;2023-04-03T08:37:15;2.90;99.90
12708;DHT22;6418;50.824;4.718;2023-04-03T08:39:43;3.00;99.90
12708;DHT22;6418;50.824;4.718;2023-04-03T08:42:17;3.70;99.90
12708;DHT22;6418;50.824;4.718;2023-04-03T08:44:49;3.10;99.90
12708;DHT22;6418;50.824;4.718;2023-04-03T08:47:23;3.20;99.90
12708;DHT22;6418;50.824;4.718;2023-04-03T08:49:53;3.20;99.90
12708;DHT22;6418;50.824;4.718;2023-04-03T08:52:25;3.30;99.90
12708;DHT22;6418;50.824;4.718;2023-04-03T08:54:56;3.30;99.90
12708;DHT22;6418;50.824;4.718;2023-04-03T08:57:29;3.40;99.90
12708;DHT22;6418;50.824;4.718;2023-04-03T09:00:00;3.50;99.90
12708;DHT22;6418;50.824;4.718;2023-04-03T09:02:33;3.50;99.90
12708;DHT22;6418;50.824;4.718;2023-04-03T09:05:05;3.50;99.90
12708;DHT22;6418;50.824;4.718;2023-04-03T09:07:42;3.70;99.90
12708;DHT22;6418;50.824;4.718;2023-04-03T09:10:11;3.90;99.90
12708;DHT22;6418;50.824;4.718;2023-04-03T09:12:41;3.90;99.90
12708;DHT22;6418;50.824;4.718;2023-04-03T09:15:16;4.20;99.90
12708;DHT22;6418;50.824;4.718;2023-04-03T09:17:59;4.10;99.90
12708;DHT22;6418;50.824;4.718;2023-04-03T09:20:40;4.10;99.90
12708;DHT22;6418;50.824;4.718;2023-04-03T09:23:19;4.10;99.90
12708;DHT22;6418;50.824;4.718;2023-04-03T09:25:49;4.20;99.90
12708;DHT22;6418;50.824;4.718;2023-04-03T09:28:19;4.20;99.90
12708;DHT22;6418;50.824;4.718;2023-04-03T09:30:45;4.30;99.90
12708;DHT22;6418;50.824;4.718;2023-04-03T09:33:13;4.40;99.90
12708;DHT22;6418;50.824;4.718;2023-04-03T09:35:41;4.40;99.90
12708;DHT22;6418;50.824;4.718;2023-04-03T09:38:20;4.50;99.90
12708;DHT22;6418;50.824;4.718;2023-04-03T09:40:49;4.50;99.90
12708;DHT22;6418;50.824;4.718;2023-04-03T09:43:34;4.70;99.90
12708;DHT22;6418;50.824;4.718;2023-04-03T09:46:23;4.70;99.90
12708;DHT22;6418;50.824;4.718;2023-04-03T09:48:56;4.60;99.90
12708;DHT22;6418;50.824;4.718;2023-04-03T09:51:25;4.70;99.90
12708;DHT22;6418;50.824;4.718;2023-04-03T09:53:54;4.70;99.90
12708;DHT22;6418;50.824;4.718;2023-04-03T09:56:23;4.80;99.90
12708;DHT22;6418;50.824;4.718;2023-04-03T09:59:07;4.90;99.90
12708;DHT22;6418;50.824;4.718;2023-04-03T10:01:37;5.00;99.90
12708;DHT22;6418;50.824;4.718;2023-04-03T10:04:07;5.00;99.90
12708;DHT22;6418;50.824;4.718;2023-04-03T10:06:36;5.00;99.90
12708;DHT22;6418;50.824;4.718;2023-04-03T10:09:17;5.10;99.90
12708;DHT22;6418;50.824;4.718;2023-04-03T10:11:59;5.10;99.90
12708;DHT22;6418;50.824;4.718;2023-04-03T10:14:28;5.30;99.90
12708;DHT22;6418;50.824;4.718;2023-04-03T10:17:02;5.30;99.90
12708;DHT22;6418;50.824;4.718;2023-04-03T10:19:39;5.30;99.90
12708;DHT22;6418;50.824;4.718;2023-04-03T10:22:16;6.20;99.90
12708;DHT22;6418;50.824;4.718;2023-04-03T10:24:51;5.50;99.90
12708;DHT22;6418;50.824;4.718;2023-04-03T10:27:25;5.60;99.90
12708;DHT22;6418;50.824;4.718;2023-04-03T10:29:59;5.60;99.90
12708;DHT22;6418;50.824;4.718;2023-04-03T10:32:48;5.70;99.90
12708;DHT22;6418;50.824;4.718;2023-04-03T10:35:26;5.70;99.90
12708;DHT22;6418;50.824;4.718;2023-04-03T10:38:04;5.70;99.90
12708;DHT22;6418;50.824;4.718;2023-04-03T10:40:39;5.70;99.90
12708;DHT22;6418;50.824;4.718;2023-04-03T10:43:20;5.90;99.90
12708;DHT22;6418;50.824;4.718;2023-04-03T10:45:56;5.90;99.90
12708;DHT22;6418;50.824;4.718;2023-04-03T10:48:50;6.00;99.90
12708;DHT22;6418;50.824;4.718;2023-04-03T10:51:25;6.00;99.90
12708;DHT22;6418;50.824;4.718;2023-04-03T10:53:57;6.00;99.90
12708;DHT22;6418;50.824;4.718;2023-04-03T10:56:31;5.90;99.90
12708;DHT22;6418;50.824;4.718;2023-04-03T10:59:09;6.20;99.90
12708;DHT22;6418;50.824;4.718;2023-04-03T11:01:42;6.30;99.90
12708;DHT22;6418;50.824;4.718;2023-04-03T11:04:11;6.30;99.90
12708;DHT22;6418;50.824;4.718;2023-04-03T11:06:44;6.40;99.90
12708;DHT22;6418;50.824;4.718;2023-04-03T11:09:19;6.50;99.90
12708;DHT22;6418;50.824;4.718;2023-04-03T11:11:49;6.50;99.90
12708;DHT22;6418;50.824;4.718;2023-04-03T11:14:22;6.60;99.90
12708;DHT22;6418;50.824;4.718;2023-04-03T11:16:59;6.50;99.90
12708;DHT22;6418;50.824;4.718;2023-04-03T11:19:34;6.60;99.90
12708;DHT22;6418;50.824;4.718;2023-04-03T11:22:09;6.70;99.90
12708;DHT22;6418;50.824;4.718;2023-04-03T11:24:40;6.80;99.90
12708;DHT22;6418;50.824;4.718;2023-04-03T11:27:15;6.60;99.90
12708;DHT22;6418;50.824;4.718;2023-04-03T11:29:46;6.70;99.90
12708;DHT22;6418;50.824;4.718;2023-04-03T11:32:29;6.80;99.90
12708;DHT22;6418;50.824;4.718;2023-04-03T11:35:00;6.80;99.90
12708;DHT22;6418;50.824;4.718;2023-04-03T11:37:31;6.70;99.90
12708;DHT22;6418;50.824;4.718;2023-04-03T11:40:02;7.40;99.90
12708;DHT22;6418;50.824;4.718;2023-04-03T11:42:34;6.80;99.90
12708;DHT22;6418;50.824;4.718;2023-04-03T11:45:27;6.80;99.90
12708;DHT22;6418;50.824;4.718;2023-04-03T11:47:59;6.80;99.90
12708;DHT22;6418;50.824;4.718;2023-04-03T11:50:31;6.80;99.90
12708;DHT22;6418;50.824;4.718;2023-04-03T11:53:00;6.90;99.90
12708;DHT22;6418;50.824;4.718;2023-04-03T11:55:43;6.90;99.90
12708;DHT22;6418;50.824;4.718;2023-04-03T11:58:15;6.90;99.90
12708;DHT22;6418;50.824;4.718;2023-04-03T12:00:54;7.00;99.90
12708;DHT22;6418;50.824;4.718;2023-04-03T12:04:04;7.00;99.90
12708;DHT22;6418;50.824;4.718;2023-04-03T12:10:17;7.00;99.90
12708;DHT22;6418;50.824;4.718;2023-04-03T12:12:56;7.10;99.90
12708;DHT22;6418;50.824;4.718;2023-04-03T12:15:52;7.20;99.90
12708;DHT22;6418;50.824;4.718;2023-04-03T12:18:40;7.20;99.90
12708;DHT22;6418;50.824;4.718;2023-04-03T12:21:09;7.20;99.90
12708;DHT22;6418;50.824;4.718;2023-04-03T12:23:58;7.20;99.90
12708;DHT22;6418;50.824;4.718;2023-04-03T12:26:26;7.20;99.90
12708;DHT22;6418;50.824;4.718;2023-04-03T12:28:55;7.20;99.90
12708;DHT22;6418;50.824;4.718;2023-04-03T12:31:25;7.90;99.90
12708;DHT22;6418;50.824;4.718;2023-04-03T12:34:09;8.10;99.90
12708;DHT22;6418;50.824;4.718;2023-04-03T12:36:47;7.30;99.90
12708;DHT22;6418;50.824;4.718;2023-04-03T12:39:33;7.30;99.90
12708;DHT22;6418;50.824;4.718;2023-04-03T12:42:34;7.40;99.90
12708;DHT22;6418;50.824;4.718;2023-04-03T12:45:16;7.40;99.90
12708;DHT22;6418;50.824;4.718;2023-04-03T12:47:45;7.50;99.90
12708;DHT22;6418;50.824;4.718;2023-04-03T12:50:22;7.50;99.90
12708;DHT22;6418;50.824;4.718;2023-04-03T12:52:56;7.50;99.90
12708;DHT22;6418;50.824;4.718;2023-04-03T12:55:24;7.70;99.90
12708;DHT22;6418;50.824;4.718;2023-04-03T12:57:52;7.60;99.90
12708;DHT22;6418;50.824;4.718;2023-04-03T13:00:30;7.60;99.90
12708;DHT22;6418;50.824;4.718;2023-04-03T13:02:58;7.70;99.90
12708;DHT22;6418;50.824;4.718;2023-04-03T13:05:26;7.70;99.90
12708;DHT22;6418;50.824;4.718;2023-04-03T13:07:59;7.70;99.90
12708;DHT22;6418;50.824;4.718;2023-04-03T13:10:29;7.90;99.90
12708;DHT22;6418;50.824;4.718;2023-04-03T13:12:58;7.80;99.90
12708;DHT22;6418;50.824;4.718;2023-04-03T13:15:27;7.90;99.90
12708;DHT22;6418;50.824;4.718;2023-04-03T13:17:55;7.90;99.90
12708;DHT22;6418;50.824;4.718;2023-04-03T13:20:25;7.90;99.90
12708;DHT22;6418;50.824;4.718;2023-04-03T13:22:57;7.90;99.90
12708;DHT22;6418;50.824;4.718;2023-04-03T13:25:28;8.30;99.90
12708;DHT22;6418;50.824;4.718;2023-04-03T13:27:56;8.00;99.90
12708;DHT22;6418;50.824;4.718;2023-04-03T13:30:30;8.10;99.90
12708;DHT22;6418;50.824;4.718;2023-04-03T13:33:01;8.00;99.90
12708;DHT22;6418;50.824;4.718;2023-04-03T13:35:36;8.10;99.90
12708;DHT22;6418;50.824;4.718;2023-04-03T13:38:19;8.10;99.90
12708;DHT22;6418;50.824;4.718;2023-04-03T13:40:48;8.20;99.90
12708;DHT22;6418;50.824;4.718;2023-04-03T13:43:19;8.30;99.90
12708;DHT22;6418;50.824;4.718;2023-04-03T13:46:22;8.30;99.90
12708;DHT22;6418;50.824;4.718;2023-04-03T13:48:50;8.30;99.90
12708;DHT22;6418;50.824;4.718;2023-04-03T13:51:21;8.40;99.90
12708;DHT22;6418;50.824;4.718;2023-04-03T13:53:52;8.40;99.90
12708;DHT22;6418;50.824;4.718;2023-04-03T13:56:25;8.40;99.90
12708;DHT22;6418;50.824;4.718;2023-04-03T13:58:56;8.40;99.90
12708;DHT22;6418;50.824;4.718;2023-04-03T14:01:25;8.50;99.90
12708;DHT22;6418;50.824;4.718;2023-04-03T14:04:00;8.50;99.90
12708;DHT22;6418;50.824;4.718;2023-04-03T14:06:28;8.50;99.90
12708;DHT22;6418;50.824;4.718;2023-04-03T14:08:56;8.50;99.90
12708;DHT22;6418;50.824;4.718;2023-04-03T14:11:28;8.60;99.90
12708;DHT22;6418;50.824;4.718;2023-04-03T14:13:56;8.60;99.90
12708;DHT22;6418;50.824;4.718;2023-04-03T14:16:29;8.60;99.90
12708;DHT22;6418;50.824;4.718;2023-04-03T14:18:59;8.80;99.90
12708;DHT22;6418;50.824;4.718;2023-04-03T14:21:26;8.70;99.90
12708;DHT22;6418;50.824;4.718;2023-04-03T14:23:53;8.70;99.90
12708;DHT22;6418;50.824;4.718;2023-04-03T14:26:23;8.80;99.90
12708;DHT22;6418;50.824;4.718;2023-04-03T14:28:54;8.80;99.90
12708;DHT22;6418;50.824;4.718;2023-04-03T14:31:22;8.90;99.90
12708;DHT22;6418;50.824;4.718;2023-04-03T14:33:50;8.90;99.90
12708;DHT22;6418;50.824;4.718;2023-04-03T14:36:19;8.90;99.90
12708;DHT22;6418;50.824;4.718;2023-04-03T14:38:47;9.00;99.90
12708;DHT22;6418;50.824;4.718;2023-04-03T14:41:17;9.00;99.90
12708;DHT22;6418;50.824;4.718;2023-04-03T14:43:46;9.00;99.90
12708;DHT22;6418;50.824;4.718;2023-04-03T14:46:15;8.90;99.90
12708;DHT22;6418;50.824;4.718;2023-04-03T14:48:43;9.00;99.90
12708;DHT22;6418;50.824;4.718;2023-04-03T14:51:11;9.10;99.90
12708;DHT22;6418;50.824;4.718;2023-04-03T14:53:39;9.10;99.90
12708;DHT22;6418;50.824;4.718;2023-04-03T14:56:12;9.20;99.90
12708;DHT22;6418;50.824;4.718;2023-04-03T14:58:39;9.10;99.90
12708;DHT22;6418;50.824;4.718;2023-04-03T15:01:09;9.20;99.90
12708;DHT22;6418;50.824;4.718;2023-04-03T15:03:37;9.20;99.90
12708;DHT22;6418;50.824;4.718;2023-04-03T15:06:05;9.20;99.90
12708;DHT22;6418;50.824;4.718;2023-04-03T15:08:32;9.30;99.90
12708;DHT22;6418;50.824;4.718;2023-04-03T15:10:59;9.30;99.90
12708;DHT22;6418;50.824;4.718;2023-04-03T15:13:26;9.40;99.90
12708;DHT22;6418;50.824;4.718;2023-04-03T15:15:53;9.50;99.90
12708;DHT22;6418;50.824;4.718;2023-04-03T15:18:24;9.60;99.90
12708;DHT22;6418;50.824;4.718;2023-04-03T15:20:52;10.00;99.90
12708;DHT22;6418;50.824;4.718;2023-04-03T15:23:19;10.40;99.90
12708;DHT22;6418;50.824;4.718;2023-04-03T15:25:52;10.90;99.90
12708;DHT22;6418;50.824;4.718;2023-04-03T15:28:23;11.40;99.90
12708;DHT22;6418;50.824;4.718;2023-04-03T15:30:51;11.70;99.90
12708;DHT22;6418;50.824;4.718;2023-04-03T15:33:18;12.10;99.90
12708;DHT22;6418;50.824;4.718;2023-04-03T15:35:46;12.30;99.90
12708;DHT22;6418;50.824;4.718;2023-04-03T15:38:13;12.70;99.90
12708;DHT22;6418;50.824;4.718;2023-04-03T15:40:40;13.10;99.90
12708;DHT22;6418;50.824;4.718;2023-04-03T15:43:08;13.50;99.90
12708;DHT22;6418;50.824;4.718;2023-04-03T15:45:36;13.90;99.90
12708;DHT22;6418;50.824;4.718;2023-04-03T15:48:04;13.90;99.90
12708;DHT22;6418;50.824;4.718;2023-04-03T15:50:32;14.10;99.90
12708;DHT22;6418;50.824;4.718;2023-04-03T15:53:02;14.40;99.90
12708;DHT22;6418;50.824;4.718;2023-04-03T15:55:31;14.70;99.90
12708;DHT22;6418;50.824;4.718;2023-04-03T15:57:59;14.60;99.90
12708;DHT22;6418;50.824;4.718;2023-04-03T16:00:27;14.60;99.90
12708;DHT22;6418;50.824;4.718;2023-04-03T16:02:58;14.80;99.90
12708;DHT22;6418;50.824;4.718;2023-04-03T16:05:25;15.00;99.90
12708;DHT22;6418;50.824;4.718;2023-04-03T16:07:52;14.90;99.90
12708;DHT22;6418;50.824;4.718;2023-04-03T16:10:22;15.10;99.90
12708;DHT22;6418;50.824;4.718;2023-04-03T16:12:49;15.30;99.90
12708;DHT22;6418;50.824;4.718;2023-04-03T16:15:16;15.30;99.90
12708;DHT22;6418;50.824;4.718;2023-04-03T16:17:43;15.30;99.90
12708;DHT22;6418;50.824;4.718;2023-04-03T16:20:13;15.00;99.90
12708;DHT22;6418;50.824;4.718;2023-04-03T16:22:41;14.90;99.90